Tiempo atmosférico en la estación meteorológica de Priego de Cordoba, Córdoba (520 m.)



Fecha
DESCASC
Temp. máxima en grados centígrados (hora)
DESCASC
Temp. mínima en grados centígrados (hora)
DESCASC
Temp. media en grados centígrados
DESCASC
Racha de viento máxima en m/sg (hora)
DESCASC
Velocidad máxima media en intervalos de 10 minutos(hora)
DESCASC
Precipitaciones diarias en mm
DESCASC
Precipitaciones de 00:00 a 06:00 en mm
DESCASC
Precipitaciones de 06:00 a 12:00 en mm
DESCASC
Precipitaciones de 12:00 a 18:00 en mm
DESCASC
Precipitaciones de 18:00 a 24:00 en mm
DESCASC
16-02-2020 22 (16:50) 4.9 (07:50) 13.5 9.17 (14:30) 3.89 (02:30) 0 0 0 0 0
15-02-2020 18.8 (16:00) 5.1 (08:50) 11.9 6.39 (14:30) 4.44 (14:30) 0 0 0 0 0
14-02-2020 18.4 (14:40) 3.9 (08:50) 11.1 6.39 (15:40) 3.89 (15:40) 0 0 0 0 0
13-02-2020 15.9 (15:40) 7.6 (00:00) 11.7 6.11 (15:50) 4.17 (15:50) 0 0 0 0 0
12-02-2020 19.8 (15:20) 9.6 (00:00) 14.7 8.61 (16:10) 5 (16:10) 0 0 0 0 0
11-02-2020 20.1 (16:10) 4.6 (00:00) 12.4 6.39 (14:10) 4.72 (16:50) 0 0 0 0 0
10-02-2020 18.7 (14:40) 4.3 (00:00) 11.5 6.11 (16:40) 4.44 (16:50) 0 0 0 0 0
09-02-2020 17.1 (14:50) 7.2 (00:00) 12.2 6.11 (15:10) 3.61 (15:20) 0 0 0 0 0
08-02-2020 15.5 (15:30) 7.2 (00:00) 11.3 6.39 (12:30) 4.17 (16:50) 0 0 0 0 0
07-02-2020 17.4 (15:40) 4.8 (00:00) 11.1 9.17 (13:10) 6.67 (12:20) 0 0 0 0 0
06-02-2020 17.7 (15:50) 6.9 (00:00) 12.3 7.78 (11:40) 5.56 (11:30) 0 0 0 0 0
05-02-2020 21.9 (15:00) 3.9 (00:00) 12.9 6.94 (16:50) 5.28 (17:10) 0 0 0 0 0
04-02-2020 21 (15:40) 5.2 (00:00) 13.1 9.17 (15:10) 5.56 (15:00) 0 0 0 0 0
03-02-2020 22.4 (16:10) 6 (08:30) 14.2 5.56 (18:10) 3.89 (18:40) 0.2 0 0.2 0 0
02-02-2020 21.6 (16:20) 4.8 (00:00) 13.2 5.28 (17:50) 4.17 (19:30) 0 0 0 0 0
01-02-2020 15.5 (13:30) 8.1 (00:00) 11.8 6.67 (14:20) 4.17 (14:20) 0.2 0 0.2 0 0
31-01-2020 16.2 (15:00) 7.2 (00:00) 11.7 5.28 (15:50) 3.61 (17:50) 0 0 0 0 0
30-01-2020 16.9 (14:50) 3.5 (00:00) 10.2 5.83 (14:40) 3.89 (14:40) 0.2 0 0.2 0 0
29-01-2020 15.3 (16:20) 3.8 (00:00) 9.6 5.28 (15:50) 3.61 (15:30) 0 0 0 0 0
28-01-2020 15.2 (13:00) 5.6 (00:00) 10.4 5.83 (14:30) 4.17 (14:30) 0 0 0 0 0
27-01-2020 12.9 (13:30) 0.5 (00:00) 6.7 5.28 (15:30) 3.61 (15:30) 0.2 0 0.2 0 0
26-01-2020 12.8 (16:00) 3.3 (00:00) 8.1 6.94 (16:30) 3.06 (18:20) 0.8 0.8 0 0 0
25-01-2020 10.3 (13:00) 7.8 (00:00) 9.1 10.28 (13:00) 7.5 (13:10) 7.8 2.2 3 2.6 0
24-01-2020 13.2 (13:20) 6.8 (00:00) 10 8.06 (04:10) 4.44 (00:40) 5.2 4 0 0 1.2
23-01-2020 8.8 (15:10) 6 (00:00) 7.4 6.39 (16:00) 4.44 (16:00) 4 0.2 2 1.4 0.4
22-01-2020 10.8 (15:40) 5.1 (00:00) 8 7.78 (22:40) 4.72 (16:50) 0.2 0 0.2 0 0

Gráficas

Temp. máximas Temp. mínimas Temp. medias Precipitaciones Rachas de viento máximas Velocidades máximas media en intervalos de 10 minutos

Datos horarios

Fecha y hora oficial Temperatura (ºC) Velocidad del viento (km/h) Dirección del viento Racha (km/h) Dirección de racha Precipitación (mm) Presión (hPa) Tendencia (hPa) Humedad (%)
2020-02-20 23:00:00 9.8 5 Sudoeste 12 Sudoeste 0 -- -- 77
2020-02-20 22:00:00 10.1 9 Sudoeste 12 Sudoeste 0 -- -- 76
2020-02-20 21:00:00 11.8 7 Sudoeste 10 Sudoeste 0 -- -- 70
2020-02-20 20:00:00 13.9 5 Nordeste 10 Nordeste 0 -- -- 57
2020-02-20 19:00:00 15.2 7 Nordeste 15 Norte 0 -- -- 55
2020-02-20 18:00:00 17.1 11 Norte 24 Norte 0 -- -- 50
2020-02-20 17:00:00 17.7 15 Norte 26 Nordeste 0 -- -- 49
2020-02-20 16:00:00 18.1 15 Norte 26 Norte 0 -- -- 47
2020-02-20 15:00:00 19.2 4 Sur 17 Sudoeste 0 -- -- 42
2020-02-20 14:00:00 17.6 7 Oeste 17 Sudoeste 0 -- -- 44
2020-02-20 13:00:00 16.2 4 Norte 15 Noroeste 0 -- -- 49
2020-02-20 12:00:00 14.7 4 Sudoeste 9 Oeste 0 -- -- 54
2020-02-20 11:00:00 12.1 2 Sudoeste 6 Sur 0 -- -- 65
2020-02-20 10:00:00 8 0 Calma 6 Sudoeste 0 -- -- 85
2020-02-20 09:00:00 4.9 3 Sudoeste 8 Sudoeste 0 -- -- 94
2020-02-20 08:00:00 4.7 4 Sudoeste 5 Sudoeste 0 -- -- 92
2020-02-20 07:00:00 5.2 3 Sudoeste 9 Sudoeste 0 -- -- 94
2020-02-20 06:00:00 -- -- -- -- -- -- -- -- --
2020-02-20 05:00:00 -- -- -- -- -- -- -- -- --
2020-02-20 04:00:00 -- -- -- -- -- -- -- -- --
2020-02-20 03:00:00 7.3 8 Sudoeste 12 Oeste 0 -- -- 94
2020-02-20 02:00:00 7 7 Sudoeste 10 Sudoeste 0 -- -- 94
2020-02-20 01:00:00 7.9 6 Sudoeste 9 Sudoeste 0 -- -- 93
2020-02-20 00:00:00 8.4 5 Sudoeste 11 Sudoeste 0 -- -- 89
2020-02-19 23:00:00 9.5 9 Sudoeste 12 Sudoeste 0 -- -- 89
2020-02-19 22:00:00 11 9 Sur 20 Oeste 0 -- -- 83
2020-02-19 21:00:00 12.3 11 Sudoeste 17 Sudoeste 0 -- -- 79
2020-02-19 20:00:00 14 8 Sudoeste 12 Sudoeste 0 -- -- 72
2020-02-19 19:00:00 15.8 5 Nordeste 15 Noroeste 0 -- -- 59
2020-02-19 18:00:00 17 6 Norte 22 Noroeste 0 -- -- 57
2020-02-19 17:00:00 17.6 7 Norte 24 Norte 0 -- -- 59
2020-02-19 16:00:00 17 14 Norte 26 Norte 0 -- -- 61
2020-02-19 15:00:00 17.1 18 Norte 28 Norte 0 -- -- 64
2020-02-19 14:00:00 17.6 12 Norte 22 Nordeste 0 -- -- 64
2020-02-19 13:00:00 16.7 5 Norte 15 Nordeste 0 -- -- 64
2020-02-19 12:00:00 14.6 5 Nordeste 14 Nordeste 0 -- -- 76
2020-02-19 11:00:00 14.1 9 Norte 14 Norte 0 -- -- 80
2020-02-19 10:00:00 12.5 10 Nordeste 14 Nordeste 0 -- -- 87
2020-02-19 09:00:00 11.3 0 Calma 10 Norte 0 -- -- 92
2020-02-19 08:00:00 11.2 9 Nordeste 17 Nordeste 0 -- -- 92
2020-02-19 07:00:00 11.4 7 Nordeste 10 Norte 0 -- -- 90
2020-02-19 06:00:00 11.6 4 Norte 9 Norte 0 -- -- 89
2020-02-19 05:00:00 11.8 2 Este 11 Nordeste 0 -- -- 87
2020-02-19 04:00:00 11.8 4 Nordeste 6 Nordeste 0 -- -- 86
2020-02-19 03:00:00 11.8 0 Calma 10 Sudoeste 0 -- -- 85
2020-02-19 02:00:00 11.7 10 Sudoeste 14 Sudoeste 0 -- -- 85
2020-02-19 01:00:00 12.3 6 Sudoeste 13 Sur 0 -- -- 82
2020-02-19 00:00:00 12.4 10 Sur 14 Sudoeste 0 -- -- 82
2020-02-18 23:00:00 12.5 9 Sudoeste 14 Sur 0 -- -- 82
2020-02-18 22:00:00 12.9 9 Sur 17 Sudoeste 0 -- -- 80
2020-02-18 21:00:00 13.5 10 Sudoeste 21 Sudoeste 0 -- -- 76
2020-02-18 20:00:00 14.4 15 Sudoeste 26 Sudoeste 0 -- -- 71
2020-02-18 19:00:00 15.5 18 Sudoeste 26 Sudoeste 0 -- -- 66
2020-02-18 18:00:00 16.8 15 Sudoeste 30 Sudoeste 0 -- -- 62
2020-02-18 17:00:00 17.7 13 Oeste 27 Oeste 0 -- -- 61
2020-02-18 16:00:00 18.9 5 Sudoeste 22 Norte 0 -- -- 59
2020-02-18 15:00:00 18.3 12 Norte 22 Norte 0 -- -- 62
2020-02-18 14:00:00 17.6 9 Norte 19 Nordeste 0 -- -- 65
2020-02-18 13:00:00 18.2 9 Nordeste 13 Nordeste 0 -- -- 62
2020-02-18 12:00:00 17.3 3 Nordeste 13 Norte 0 -- -- 65
2020-02-18 11:00:00 14.6 9 Norte 14 Norte 0 -- -- 77
2020-02-18 10:00:00 10.9 0 Calma 6 Sudoeste 0 -- -- 90
2020-02-18 09:00:00 8.5 3 Sudoeste 8 Sudoeste 0 -- -- 97
2020-02-18 08:00:00 8.4 2 Sur 14 Oeste 0 -- -- 96
2020-02-18 07:00:00 8.3 7 Sudoeste 9 Sudoeste 0 -- -- 97
2020-02-18 06:00:00 8.6 4 Sudoeste 7 Oeste 0 -- -- 95
2020-02-18 05:00:00 8.6 4 Sudoeste 8 Sudoeste 0 -- -- 95
2020-02-18 04:00:00 8.8 3 Sudoeste 7 Oeste 0 -- -- 93
2020-02-18 03:00:00 9.7 3 Sudoeste 5 Sudoeste 0 -- -- 90
2020-02-18 02:00:00 10.2 4 Oeste 9 Oeste 0 -- -- 89
2020-02-18 01:00:00 10.8 0 Calma 5 Nordeste 0 -- -- 87
2020-02-18 00:00:00 11.4 2 Norte 12 Nordeste 0 -- -- 84
2020-02-17 23:00:00 12.2 9 Nordeste 13 Nordeste 0 -- -- 82
2020-02-17 22:00:00 13 8 Nordeste 20 Nordeste 0 -- -- 79
2020-02-17 21:00:00 13.7 7 Nordeste 18 Nordeste 0 -- -- 77
2020-02-17 20:00:00 14.7 10 Nordeste 23 Nordeste 0 -- -- 72
2020-02-17 19:00:00 16 11 Norte 26 Norte 0 -- -- 65
2020-02-17 18:00:00 17.4 17 Norte 25 Norte 0 -- -- 59
2020-02-17 17:00:00 18.1 12 Norte 29 Norte 0 -- -- 54
2020-02-17 16:00:00 18.5 11 Norte 30 Norte 0 -- -- 54
2020-02-17 15:00:00 18.6 16 Norte 32 Norte 0 -- -- 48
2020-02-17 14:00:00 17.9 17 Nordeste 26 Norte 0 -- -- 64
2020-02-17 13:00:00 17.8 14 Nordeste 19 Nordeste 0 -- -- 64
2020-02-17 12:00:00 16.4 7 Nordeste 11 Nordeste 0 -- -- 66
2020-02-17 11:00:00 12.6 4 Sudoeste 6 Sur 0 -- -- 74
2020-02-17 10:00:00 7.8 4 Sudoeste 10 Sudoeste 0 -- -- 91
2020-02-17 09:00:00 5 10 Sudoeste 12 Sudoeste 0 -- -- 96
2020-02-17 08:00:00 4.3 8 Sudoeste 9 Sudoeste 0 -- -- 95
2020-02-17 07:00:00 5 4 Sudoeste 10 Sudoeste 0 -- -- 95
2020-02-17 06:00:00 5.4 6 Sudoeste 12 Sudoeste 0 -- -- 94
2020-02-17 05:00:00 5.7 8 Sudoeste 11 Sudoeste 0 -- -- 94
2020-02-17 04:00:00 5.9 7 Sudoeste 10 Sudoeste 0 -- -- 92
2020-02-17 03:00:00 7.3 5 Sudoeste 6 Sudoeste 0 -- -- 90
2020-02-17 02:00:00 7.1 4 Sudoeste 12 Sudoeste 0 -- -- 89
2020-02-17 01:00:00 7.6 10 Sudoeste 13 Sudoeste 0 -- -- 88
2020-02-17 00:00:00 9.3 4 Sudoeste 9 Sudoeste 0 -- -- 80
2020-02-16 23:00:00 10 8 Sudoeste 9 Sudoeste 0 -- -- 78
2020-02-16 22:00:00 11.3 7 Sudoeste 10 Sudoeste 0 -- -- 72
2020-02-16 21:00:00 13.5 2 Oeste 9 Sudoeste 0 -- -- 63
2020-02-16 20:00:00 15.8 5 Sur 8 Sudoeste 0 -- -- 55
2020-02-16 19:00:00 18.2 5 Nordeste 17 Sudoeste 0 -- -- 52
2020-02-16 18:00:00 21 11 Sudoeste 19 Sudoeste 0 -- -- 37
2020-02-16 17:00:00 21.9 10 Sudoeste 19 Sudoeste 0 -- -- 33
2020-02-16 16:00:00 21 10 Nordeste 19 Nordeste 0 -- -- 51
2020-02-16 15:00:00 21 8 Nordeste 33 Norte 0 -- -- 49
2020-02-16 14:00:00 21.3 10 Sudoeste 20 Sudoeste 0 -- -- 33
2020-02-16 13:00:00 20.1 9 Sur 13 Sur 0 -- -- 42
2020-02-16 12:00:00 18 2 Sudoeste 7 Sudeste 0 -- -- 55
2020-02-16 11:00:00 14.3 2 Sur 6 Sudoeste 0 -- -- 73
2020-02-16 10:00:00 9 4 Sudoeste 8 Sudoeste 0 -- -- 92
2020-02-16 09:00:00 5.2 9 Sudoeste 13 Sudoeste 0 -- -- 97
2020-02-16 08:00:00 5.2 9 Sudoeste 12 Oeste 0 -- -- 97
2020-02-16 07:00:00 5.6 12 Sudoeste 13 Sudoeste 0 -- -- 96
2020-02-16 06:00:00 6 8 Sudoeste 10 Sudoeste 0 -- -- 91
2020-02-16 05:00:00 6.8 0 Calma 11 Sudoeste 0 -- -- 94
2020-02-16 04:00:00 6.6 10 Sudoeste 17 Sudoeste 0 -- -- 93
2020-02-16 03:00:00 6.9 12 Sudoeste 15 Sudoeste 0 -- -- 95
2020-02-16 02:00:00 7.3 11 Sudoeste 13 Sudoeste 0 -- -- 93
2020-02-16 01:00:00 8.4 5 Sudoeste 10 Sudoeste 0 -- -- 89
2020-02-16 00:00:00 8.8 10 Sudoeste 14 Sudoeste 0 -- -- 90
2020-02-15 23:00:00 9.2 9 Sudoeste 12 Sudoeste 0 -- -- 89
2020-02-15 22:00:00 10.5 7 Sudoeste 9 Sudoeste 0 -- -- 85
2020-02-15 21:00:00 12.5 5 Sudoeste 11 Oeste 0 -- -- 79
2020-02-15 20:00:00 14.4 0 Calma 10 Nordeste 0 -- -- 73
2020-02-15 19:00:00 16 8 Nordeste 10 Nordeste 0 -- -- 67
2020-02-15 18:00:00 18.1 7 Nordeste 15 Nordeste 0 -- -- 59
2020-02-15 17:00:00 18.5 12 Nordeste 22 Nordeste 0 -- -- 58
2020-02-15 16:00:00 18.8 12 Nordeste 21 Nordeste 0 -- -- 58
2020-02-15 15:00:00 18.7 14 Nordeste 23 Norte 0 -- -- 57
2020-02-15 14:00:00 18.4 13 Nordeste 22 Nordeste 0 -- -- 59
2020-02-15 13:00:00 18.1 10 Nordeste 16 Nordeste 0 -- -- 57
2020-02-15 12:00:00 15.9 5 Norte 9 Norte 0 -- -- 67
2020-02-15 11:00:00 13.7 0 Calma 8 Sudoeste 0 -- -- 80
2020-02-15 10:00:00 9.8 3 Sudeste 15 Oeste 0 -- -- 94
2020-02-15 09:00:00 5.7 5 Sudoeste 13 Sudoeste 0 -- -- 98
2020-02-15 08:00:00 6.4 4 Sudoeste 8 Sur 0 -- -- 96
2020-02-15 07:00:00 5.8 5 Sudoeste 15 Sudoeste 0 -- -- 97
2020-02-15 06:00:00 5.4 8 Sudoeste 12 Sudoeste 0 -- -- 95
2020-02-15 05:00:00 6.2 5 Sudoeste 9 Sudoeste 0 -- -- 95
2020-02-15 04:00:00 6.5 7 Sudoeste 10 Sudoeste 0 -- -- 95
2020-02-15 03:00:00 7.2 6 Sudoeste 13 Sudoeste 0 -- -- 95
2020-02-15 02:00:00 7.2 12 Sudoeste 13 Sudoeste 0 -- -- 93
2020-02-15 01:00:00 7.8 7 Sudoeste 12 Sudoeste 0 -- -- 92
2020-02-15 00:00:00 8.5 8 Sudoeste 15 Sudoeste 0 -- -- 90
2020-02-14 23:00:00 9.3 10 Sudoeste 13 Sudoeste 0 -- -- 87
2020-02-14 22:00:00 10.1 7 Sudoeste 12 Sudoeste 0 -- -- 85
2020-02-14 21:00:00 12 8 Sudoeste 9 Sudoeste 0 -- -- 78
2020-02-14 20:00:00 13.3 9 Nordeste 14 Nordeste 0 -- -- 72
2020-02-14 19:00:00 14.6 10 Nordeste 17 Nordeste 0 -- -- 68
2020-02-14 18:00:00 16.8 12 Nordeste 20 Nordeste 0 -- -- 62
2020-02-14 17:00:00 17.8 11 Norte 20 Norte 0 -- -- 59
2020-02-14 16:00:00 18 13 Nordeste 23 Norte 0 -- -- 58
2020-02-14 15:00:00 18.4 12 Nordeste 23 Nordeste 0 -- -- 57
2020-02-14 14:00:00 18.2 8 Nordeste 15 Nordeste 0 -- -- 57
2020-02-14 13:00:00 17 5 Norte 9 Noroeste 0 -- -- 59
2020-02-14 12:00:00 15.1 0 Calma 5 Norte 0 -- -- 66
2020-02-14 11:00:00 11.8 3 Sur 9 Sudoeste 0 -- -- 84
2020-02-14 10:00:00 7 7 Sudoeste 11 Sudoeste 0 -- -- 99
2020-02-14 09:00:00 4.2 11 Sudoeste 12 Sudoeste 0 -- -- 99
2020-02-14 08:00:00 4 5 Sudoeste 8 Sudoeste 0 -- -- 98
2020-02-14 07:00:00 4.3 5 Sudoeste 9 Sudoeste 0 -- -- 97
2020-02-14 06:00:00 4.5 8 Sudoeste 10 Sudoeste 0 -- -- 98
2020-02-14 05:00:00 4.9 5 Sudoeste -- -- 0 -- -- 97
2020-02-14 04:00:00 5.5 7 Sudoeste 11 Sudoeste 0 -- -- 97
2020-02-14 03:00:00 5.8 6 Sudoeste 9 Sudoeste 0 -- -- 96
2020-02-14 02:00:00 6.7 6 Sudoeste 8 Sudoeste 0 -- -- 95
2020-02-14 01:00:00 7.5 2 Norte 7 Sudoeste 0 -- -- 94
2020-02-14 00:00:00 7.6 6 Sudoeste 10 Sudoeste 0 -- -- 94
2020-02-13 23:00:00 8.3 6 Sudoeste 9 Oeste 0 -- -- 90
2020-02-13 22:00:00 9.9 4 Sudoeste 9 Este 0 -- -- 87
2020-02-13 21:00:00 11.2 5 Nordeste 10 Nordeste 0 -- -- 83
2020-02-13 20:00:00 11.9 7 Nordeste 13 Norte 0 -- -- 79
2020-02-13 19:00:00 13.4 3 Norte 14 Norte 0 -- -- 72
2020-02-13 18:00:00 14.4 10 Norte 16 Norte 0 -- -- 68
2020-02-13 17:00:00 14.7 9 Norte 19 Nordeste 0 -- -- 64
2020-02-13 16:00:00 15.3 12 Nordeste 22 Norte 0 -- -- 64
2020-02-13 15:00:00 14.7 8 Norte 15 Nordeste 0 -- -- 69
2020-02-13 14:00:00 14.2 10 Nordeste 16 Nordeste 0 -- -- 72
2020-02-13 13:00:00 14.2 2 Sudoeste 9 Este 0 -- -- 73
2020-02-13 12:00:00 12.5 5 Este 10 Nordeste 0 -- -- 82
2020-02-13 11:00:00 11.8 3 Sudoeste 17 Sudoeste 0 -- -- 84
2020-02-13 10:00:00 11.3 12 Sudoeste 17 Sudoeste 0 -- -- 86
2020-02-13 09:00:00 10.9 7 Sudoeste 10 Sudoeste 0 -- -- 89
2020-02-13 08:00:00 10.8 5 Sudoeste 12 Sudoeste 0 -- -- 88
2020-02-13 07:00:00 10.9 2 Este 5 Este 0 -- -- 93
2020-02-13 06:00:00 10.9 3 Nordeste 5 Sudoeste 0 -- -- 94
2020-02-13 05:00:00 11 3 Nordeste 6 Norte 0 -- -- 93
2020-02-13 04:00:00 11.6 3 Norte 4 Norte 0 -- -- 91
2020-02-13 03:00:00 11.8 0 Calma 4 Nordeste 0 -- -- 90
2020-02-13 02:00:00 11.8 3 Este 4 Nordeste 0 -- -- 91
2020-02-13 01:00:00 11.8 3 Norte 10 Norte 0 -- -- 90
2020-02-13 00:00:00 11.9 4 Norte 8 Nordeste 0 -- -- 90
2020-02-12 23:00:00 12.2 7 Nordeste 11 Nordeste 0 -- -- 90
2020-02-12 22:00:00 12.6 5 Este 12 Nordeste 0 -- -- 90
2020-02-12 21:00:00 12.9 6 Nordeste 14 Nordeste 0 -- -- 88
2020-02-12 20:00:00 13.3 8 Nordeste 22 Nordeste 0 -- -- 86
2020-02-12 19:00:00 13.7 13 Nordeste 25 Nordeste 0 -- -- 85
2020-02-12 18:00:00 15 10 Nordeste 21 Nordeste 0 -- -- 78
2020-02-12 17:00:00 16 13 Nordeste 31 Norte 0 -- -- 74
2020-02-12 16:00:00 18.7 13 Nordeste 23 Nordeste 0 -- -- 67
2020-02-12 15:00:00 19 3 Sur 10 Sudoeste 0 -- -- 62
2020-02-12 14:00:00 16.9 6 Nordeste 18 Norte 0 -- -- 70
2020-02-12 13:00:00 15.4 12 Nordeste 21 Nordeste 0 -- -- 77
2020-02-12 12:00:00 14.5 14 Nordeste 24 Nordeste 0 -- -- 80
2020-02-12 11:00:00 14.9 15 Nordeste 21 Nordeste 0 -- -- 78
2020-02-12 10:00:00 12.6 2 Sur 10 Sudoeste 0 -- -- 89
2020-02-12 09:00:00 11.3 8 Sudoeste 13 Sudoeste 0 -- -- 89
2020-02-12 08:00:00 11.1 10 Sudoeste 12 Sudoeste 0 -- -- 91
2020-02-12 07:00:00 11.2 9 Oeste 12 Sudoeste 0 -- -- 92
2020-02-12 06:00:00 11.2 7 Sudoeste 11 Sur 0 -- -- 90
2020-02-12 05:00:00 11.2 10 Sudoeste 14 Sudoeste 0 -- -- 89
2020-02-12 04:00:00 10.7 4 Sur 10 Sudoeste 0 -- -- 88
2020-02-12 03:00:00 10.2 3 Sur 8 Sudoeste 0 -- -- 93
2020-02-12 02:00:00 9.9 4 Sudoeste 7 Sudoeste 0 -- -- 89
2020-02-12 01:00:00 10.2 6 Sudoeste 8 Sudoeste 0 -- -- 90
2020-02-12 00:00:00 10 3 Sudoeste 15 Sudoeste 0 -- -- 89
2020-02-11 23:00:00 10.1 10 Sudoeste 12 Sudoeste 0 -- -- 89
2020-02-11 22:00:00 11.7 5 Sudoeste 8 Sudoeste 0 -- -- 84
2020-02-11 21:00:00 13.2 6 Sur 9 Sudoeste 0 -- -- 77
2020-02-11 20:00:00 14.5 8 Sur 12 Sur 0 -- -- 72
2020-02-11 19:00:00 16.7 5 Sur 14 Sudoeste 0 -- -- 64
2020-02-11 18:00:00 18.9 8 Sudoeste 19 Sudoeste 0 -- -- 57
2020-02-11 17:00:00 19.2 15 Sudoeste 23 Sudoeste 0 -- -- 56
2020-02-11 16:00:00 20 3 Sudoeste 21 Nordeste 0 -- -- 55
2020-02-11 15:00:00 19.1 9 Nordeste 23 Norte 0 -- -- 56
2020-02-11 14:00:00 18.8 14 Nordeste 18 Norte 0 -- -- 58
2020-02-11 13:00:00 18.6 3 Sudoeste 9 Oeste 0 -- -- 56
2020-02-11 12:00:00 16.3 3 Norte 6 Norte 0 -- -- 61
2020-02-11 11:00:00 13.5 3 Norte 5 Sudoeste 0 -- -- 77
2020-02-11 10:00:00 8.6 4 Sudoeste 12 Sudoeste 0 -- -- 91
2020-02-11 09:00:00 4.9 8 Sudoeste 14 Sudoeste 0 -- -- 96
2020-02-11 08:00:00 5.1 10 Sudoeste 14 Sudoeste 0 -- -- 96
2020-02-11 07:00:00 5.2 9 Sudoeste 12 Sudoeste 0 -- -- 96
2020-02-11 06:00:00 5.5 7 Sudoeste 10 Sudoeste 0 -- -- 96
2020-02-11 05:00:00 5.7 8 Sudoeste 13 Oeste 0 -- -- 95
2020-02-11 04:00:00 6 11 Sudoeste 12 Sudoeste 0 -- -- 95
2020-02-11 03:00:00 6.7 5 Sudoeste 6 Sudoeste 0 -- -- 93
2020-02-11 02:00:00 7.3 5 Sudoeste 10 Sudoeste 0 -- -- 92
2020-02-11 01:00:00 7.3 6 Sudoeste 12 Sudoeste 0 -- -- 92
2020-02-11 00:00:00 8.4 6 Sudoeste 8 Sudoeste 0 -- -- 88
2020-02-10 23:00:00 9.1 6 Sudoeste 10 Sudoeste 0 -- -- 86
2020-02-10 22:00:00 9.9 8 Sudoeste 11 Sudoeste 0 -- -- 84
2020-02-10 21:00:00 11.4 9 Sudoeste 10 Sudoeste 0 -- -- 78
2020-02-10 20:00:00 13.8 8 Oeste 13 Nordeste 0 -- -- 69
2020-02-10 19:00:00 14.8 9 Nordeste 18 Norte 0 -- -- 65
2020-02-10 18:00:00 17 12 Norte 20 Nordeste 0 -- -- 57
2020-02-10 17:00:00 17.9 13 Nordeste 22 Norte 0 -- -- 54
2020-02-10 16:00:00 18.3 13 Nordeste 21 Norte 0 -- -- 53
2020-02-10 15:00:00 18.5 10 Nordeste 17 Nordeste 0 -- -- 51
2020-02-10 14:00:00 17.7 7 Norte 13 Norte 0 -- -- 51
2020-02-10 13:00:00 17.6 5 Nordeste 15 Nordeste 0 -- -- 53
2020-02-10 12:00:00 15.9 4 Nordeste 9 Norte 0 -- -- 59
2020-02-10 11:00:00 12.7 4 Sudeste 7 Sudeste 0 -- -- 77
2020-02-10 10:00:00 7.3 6 Sudoeste 9 Sudoeste 0 -- -- 95
2020-02-10 09:00:00 4.5 6 Sudoeste 8 Sudoeste 0 -- -- 96
2020-02-10 08:00:00 4.5 9 Sudoeste 10 Sudoeste 0 -- -- 96
2020-02-10 07:00:00 4.7 5 Sudoeste 8 Sudoeste 0 -- -- 95
2020-02-10 06:00:00 5.4 4 Sudoeste 8 Sudoeste 0 -- -- 95
2020-02-10 05:00:00 5.9 5 Sudoeste 8 Sudoeste 0 -- -- 94
2020-02-10 04:00:00 5.7 5 Sudoeste 17 Sudoeste 0 -- -- 94
2020-02-10 03:00:00 6.2 11 Sudoeste 12 Sudoeste 0 -- -- 95
2020-02-10 02:00:00 6.6 11 Sudoeste 13 Sudoeste 0 -- -- 94
2020-02-10 01:00:00 6.9 10 Sudoeste 12 Sudoeste 0 -- -- 92
2020-02-10 00:00:00 7.8 8 Sudoeste 13 Sudoeste 0 -- -- 90
2020-02-09 23:00:00 8.2 9 Sudoeste 12 Sudoeste 0 -- -- 89
2020-02-09 22:00:00 9.2 9 Sudoeste 13 Sudoeste 0 -- -- 86
2020-02-09 21:00:00 11.2 7 Sudoeste 8 Sudoeste 0 -- -- 78
2020-02-09 20:00:00 12.6 5 Nordeste 12 Norte 0 -- -- 71
2020-02-09 19:00:00 13.5 6 Nordeste 12 Nordeste 0 -- -- 69
2020-02-09 18:00:00 14.7 9 Norte 17 Nordeste 0 -- -- 65
2020-02-09 17:00:00 15.4 8 Nordeste 17 Norte 0 -- -- 63
2020-02-09 16:00:00 16 9 Norte 22 Norte 0 -- -- 61
2020-02-09 15:00:00 16.9 9 Norte 20 Norte 0 -- -- 54
2020-02-09 14:00:00 16.7 5 Norte 13 Nordeste 0 -- -- 55
2020-02-09 13:00:00 15.5 7 Norte 12 Norte 0 -- -- 64
2020-02-09 12:00:00 14.2 4 Noroeste 14 Sudoeste 0 -- -- 75
2020-02-09 11:00:00 11.4 5 Oeste 11 Sudoeste 0 -- -- 88
2020-02-09 10:00:00 9.1 2 Sudoeste 10 Sudoeste 0 -- -- 95
2020-02-09 09:00:00 7.2 6 Sudoeste 8 Sudoeste 0 -- -- 95
2020-02-09 08:00:00 7.9 3 Noroeste 4 Noroeste 0 -- -- 95
2020-02-09 07:00:00 7.3 3 Sudoeste 7 Sudoeste 0 -- -- 96
2020-02-09 06:00:00 7.7 7 Sudoeste 9 Oeste 0 -- -- 94
2020-02-09 05:00:00 8.4 8 Sur 15 Sudoeste 0 -- -- 94
2020-02-09 04:00:00 8.8 10 Sur 13 Sur 0 -- -- 93
2020-02-09 03:00:00 8.6 2 Sur 10 Sudoeste 0 -- -- 93
2020-02-09 02:00:00 8.3 7 Sudoeste 12 Sudoeste 0 -- -- 92
2020-02-09 01:00:00 8.3 5 Sudoeste 8 Sudoeste 0 -- -- 92
2020-02-09 00:00:00 8.3 7 Sudoeste 10 Sudoeste 0 -- -- 93
2020-02-08 23:00:00 9 6 Sudoeste 8 Sudoeste 0 -- -- 90
2020-02-08 22:00:00 9.9 6 Sudoeste 8 Sudoeste 0 -- -- 88
2020-02-08 21:00:00 10.9 4 Sur 6 Sur 0 -- -- 84
2020-02-08 20:00:00 11.8 4 Nordeste 13 Sur 0 -- -- 81
2020-02-08 19:00:00 12.8 10 Sudoeste 19 Sudoeste 0 -- -- 78
2020-02-08 18:00:00 13.7 12 Sudoeste 20 Sudoeste 0 -- -- 73
2020-02-08 17:00:00 14 15 Sudoeste 21 Sudoeste 0 -- -- 71
2020-02-08 16:00:00 14.7 6 Sudeste 18 Nordeste 0 -- -- 69
2020-02-08 15:00:00 14.6 12 Nordeste 17 Este 0 -- -- 72
2020-02-08 14:00:00 14 5 Norte 18 Noroeste 0 -- -- 73
2020-02-08 13:00:00 14.8 7 Sudoeste 23 Sur 0 -- -- 66
2020-02-08 12:00:00 13.9 13 Sudoeste 20 Sudoeste 0 -- -- 69
2020-02-08 11:00:00 12.2 8 Sudoeste 17 Sudoeste 0 -- -- 80
2020-02-08 10:00:00 9.6 6 Sur 9 Sudoeste 0 -- -- 95
2020-02-08 09:00:00 8.3 3 Sur 6 Sudoeste 0 -- -- 97
2020-02-08 08:00:00 7.7 6 Sudoeste 9 Sudoeste 0 -- -- 96
2020-02-08 07:00:00 7.9 0 Calma 5 Noroeste 0 -- -- 94
2020-02-08 06:00:00 8.4 3 Sudeste 7 Este 0 -- -- 93
2020-02-08 05:00:00 8.4 0 Calma 5 Noroeste 0 -- -- 93
2020-02-08 04:00:00 8 4 Noroeste 6 Noroeste 0 -- -- 93
2020-02-08 03:00:00 7.8 4 Sudeste 12 Oeste 0 -- -- 92
2020-02-08 02:00:00 8.2 8 Sudoeste 11 Oeste 0 -- -- 92
2020-02-08 01:00:00 9 8 Sudoeste 10 Sur 0 -- -- 89
2020-02-08 00:00:00 10 9 Sur 10 Sudoeste 0 -- -- 84
2020-02-07 23:00:00 10.4 4 Sudoeste 8 Oeste 0 -- -- 83
2020-02-07 22:00:00 11.4 4 Sudoeste 6 Oeste 0 -- -- 79
2020-02-07 21:00:00 12 3 Sudoeste 7 Sudoeste 0 -- -- 75
2020-02-07 20:00:00 12.6 6 Sudoeste 9 Este 0 -- -- 71
2020-02-07 19:00:00 12.9 9 Nordeste 17 Nordeste 0 -- -- 71
2020-02-07 18:00:00 14.7 12 Nordeste 20 Nordeste 0 -- -- 64
2020-02-07 17:00:00 16.4 5 Nordeste 20 Oeste 0 -- -- 58
2020-02-07 16:00:00 16.7 5 Nordeste 15 Oeste 0 -- -- 57
2020-02-07 15:00:00 15.8 7 Sudoeste 25 Sudoeste 0 -- -- 59
2020-02-07 14:00:00 14.6 19 Sudoeste 33 Sudoeste 0 -- -- 63
2020-02-07 13:00:00 14.3 22 Sudoeste 32 Sur 0 -- -- 65
2020-02-07 12:00:00 14.1 15 Sudoeste 28 Sudoeste 0 -- -- 64
2020-02-07 11:00:00 11.6 6 Sudoeste 8 Sudoeste 0 -- -- 76
2020-02-07 10:00:00 7.6 5 Sudoeste 10 Sudoeste 0 -- -- 90
2020-02-07 09:00:00 5.6 9 Sudoeste 13 Sudoeste 0 -- -- 94
2020-02-07 08:00:00 5.8 8 Sudoeste 11 Sudoeste 0 -- -- 91
2020-02-07 07:00:00 5.1 6 Sudoeste 9 Sudoeste 0 -- -- 94
2020-02-07 06:00:00 5.3 8 Sudoeste 10 Oeste 0 -- -- 94
2020-02-07 05:00:00 5.3 8 Sudoeste 12 Sudoeste 0 -- -- 94
2020-02-07 04:00:00 5.6 9 Sudoeste 11 Sudoeste 0 -- -- 93
2020-02-07 03:00:00 6 5 Sur 8 Sudoeste 0 -- -- 93
2020-02-07 02:00:00 6.2 5 Sudoeste 9 Sudoeste 0 -- -- 92
2020-02-07 01:00:00 6.5 5 Sudoeste 10 Sudoeste 0 -- -- 91
2020-02-07 00:00:00 7.1 5 Sudoeste 12 Sudoeste 0 -- -- 90
2020-02-06 23:00:00 8.4 7 Sudoeste 10 Sudoeste 0 -- -- 86
2020-02-06 22:00:00 9.3 6 Sudoeste 9 Sudoeste 0 -- -- 83
2020-02-06 21:00:00 11 3 Sudoeste 9 Sudoeste 0 -- -- 76
2020-02-06 20:00:00 12.7 3 Oeste 13 Nordeste 0 -- -- 72
2020-02-06 19:00:00 13.6 9 Nordeste 16 Nordeste 0 -- -- 69
2020-02-06 18:00:00 15.9 5 Norte 19 Sur 0 -- -- 60
2020-02-06 17:00:00 16.7 12 Sur 21 Sur 0 -- -- 54
2020-02-06 16:00:00 17.6 14 Sur 23 Sur 0 -- -- 50
2020-02-06 15:00:00 17.1 17 Sur 26 Sur 0 -- -- 50
2020-02-06 14:00:00 16.8 14 Sudeste 25 Sudeste 0 -- -- 54
2020-02-06 13:00:00 15.6 16 Sudeste 26 Sudeste 0 -- -- 58
2020-02-06 12:00:00 14.3 18 Sur 28 Sudeste 0 -- -- 61
2020-02-06 11:00:00 13.2 15 Sur 23 Sur 0 -- -- 65
2020-02-06 10:00:00 11.1 3 Nordeste 6 Noroeste 0 -- -- 75
2020-02-06 09:00:00 6.9 3 Sudoeste 12 Sur 0 -- -- 86
2020-02-06 08:00:00 9.1 13 Sur 23 Sudeste 0 -- -- 78
2020-02-06 07:00:00 9.7 9 Sur 25 Sur 0 -- -- 76
2020-02-06 06:00:00 9 11 Sur 17 Sur 0 -- -- 80
2020-02-06 05:00:00 9.6 14 Sur 27 Sur 0 -- -- 78
2020-02-06 04:00:00 9.5 9 Sur 21 Sur 0 -- -- 79
2020-02-06 03:00:00 8.6 5 Norte 7 Norte 0 -- -- 81
2020-02-06 02:00:00 9.2 0 Calma 7 Sudoeste 0 -- -- 79
2020-02-06 01:00:00 9.2 3 Sudoeste 5 Sudoeste 0 -- -- 81
2020-02-06 00:00:00 9.2 3 Sur 12 Sudoeste 0 -- -- 83
2020-02-05 23:00:00 10.4 4 Sudoeste 13 Oeste 0 -- -- 78
2020-02-05 22:00:00 12 4 Sudoeste 9 Oeste 0 -- -- 70
2020-02-05 21:00:00 12.4 8 Oeste 9 Sudoeste 0 -- -- 70
2020-02-05 20:00:00 13.5 2 Sudoeste 11 Sur 0 -- -- 68
2020-02-05 19:00:00 14.5 7 Sur 13 Sudoeste 0 -- -- 65
2020-02-05 18:00:00 16.8 12 Sudoeste 23 Sudoeste 0 -- -- 58
2020-02-05 17:00:00 19.4 18 Sudoeste 25 Sudoeste 0 -- -- 49
2020-02-05 16:00:00 20.2 10 Nordeste 20 Nordeste 0 -- -- 47
2020-02-05 15:00:00 21.9 7 Sudeste 17 Sur 0 -- -- 38
2020-02-05 14:00:00 21.2 14 Sur 21 Sur 0 -- -- 36
2020-02-05 13:00:00 19.7 5 Nordeste 11 Nordeste 0 -- -- 46
2020-02-05 12:00:00 17.8 2 Norte 4 Norte 0 -- -- 45
2020-02-05 11:00:00 12.4 2 Sudoeste 9 Sudoeste 0 -- -- 60
2020-02-05 10:00:00 7.7 7 Sudoeste 12 Sudoeste 0 -- -- 78
2020-02-05 09:00:00 4.4 8 Sudoeste 12 Sudoeste 0 -- -- 91
2020-02-05 08:00:00 4.9 4 Sur 9 Sudoeste 0 -- -- 89
2020-02-05 07:00:00 5.4 6 Sudoeste 18 Sudoeste 0 -- -- 87
2020-02-05 06:00:00 4.6 17 Sudoeste 18 Sudoeste 0 -- -- 92
2020-02-05 05:00:00 5.1 7 Sudoeste 9 Sudoeste 0 -- -- 92
2020-02-05 04:00:00 6.4 0 Calma 10 Sudoeste 0 -- -- 86
2020-02-05 03:00:00 6.2 8 Sudoeste 9 Sudoeste 0 -- -- 88
2020-02-05 02:00:00 6.3 9 Sudoeste 13 Sudoeste 0 -- -- 88
2020-02-05 01:00:00 7 11 Sudoeste 12 Sudoeste 0 -- -- 86
2020-02-05 00:00:00 8.4 4 Sudoeste 10 Sudoeste 0 -- -- 81
2020-02-04 23:00:00 8.7 9 Sudoeste 9 Sudoeste 0 -- -- 82
2020-02-04 22:00:00 9.9 8 Sudoeste 9 Sudoeste 0 -- -- 80
2020-02-04 21:00:00 11.5 5 Sudoeste 12 Sudoeste 0 -- -- 75
2020-02-04 20:00:00 14.5 6 Sudoeste 10 Nordeste 0 -- -- 64
2020-02-04 19:00:00 16.8 12 Nordeste 23 Nordeste 0 -- -- 54
2020-02-04 18:00:00 18.9 18 Nordeste 25 Nordeste 0 -- -- 52
2020-02-04 12:00:00 -- -- -- -- -- -- -- -- --
2020-02-04 11:00:00 13 4 Sudoeste 8 Sudoeste 0 -- -- 67
2020-02-04 10:00:00 8.2 5 Sudoeste 10 Sudoeste 0 -- -- 84
2020-02-04 09:00:00 6.1 8 Sudoeste 10 Sudoeste 0 -- -- 87
2020-02-04 08:00:00 5.4 9 Sudoeste 10 Sudoeste 0 -- -- 90
2020-02-04 07:00:00 6.3 6 Sudoeste 7 Sudoeste 0 -- -- 88
2020-02-04 06:00:00 6.3 5 Sudoeste 13 Sudoeste 0 -- -- 89
2020-02-04 05:00:00 6.4 6 Sudoeste 15 Sudoeste 0 -- -- 91
2020-02-04 04:00:00 7 11 Sudoeste 14 Sudoeste 0 -- -- 88
2020-02-04 03:00:00 6.9 9 Sudoeste 14 Sudoeste 0 -- -- 90
2020-02-04 02:00:00 7.9 12 Sudoeste 14 Sudoeste 0 -- -- 89
2020-02-04 01:00:00 8.4 6 Sudoeste 13 Sudoeste 0 -- -- 87
2020-02-04 00:00:00 9.2 8 Sudoeste 15 Sudoeste 0 -- -- 86
2020-02-03 23:00:00 9.9 10 Sudoeste 12 Sudoeste 0 -- -- 83
2020-02-03 22:00:00 10.9 9 Sudoeste 12 Sudoeste 0 -- -- 78
2020-02-03 21:00:00 13 8 Sudoeste 12 Oeste 0 -- -- 71
2020-02-03 20:00:00 15.5 4 Sudoeste 15 Nordeste 0 -- -- 65
2020-02-03 19:00:00 18.1 11 Nordeste 20 Nordeste 0 -- -- 55
2020-02-03 18:00:00 20.4 12 Nordeste 18 Nordeste 0 -- -- 48
2020-02-03 17:00:00 22.2 10 Nordeste 15 Nordeste 0 -- -- 45
2020-02-03 16:00:00 22.3 10 Nordeste 17 Nordeste 0 -- -- 43
2020-02-03 15:00:00 22.1 12 Nordeste 15 Nordeste 0 -- -- 41
2020-02-03 14:00:00 22.2 9 Nordeste 14 Nordeste 0 -- -- 40
2020-02-03 13:00:00 21.2 5 Nordeste 8 Norte 0 -- -- 39
2020-02-03 12:00:00 18.1 2 Oeste 4 Noroeste 0 -- -- 54
2020-02-03 11:00:00 13.1 3 Sudoeste 10 Sudoeste 0 -- -- 74
2020-02-03 10:00:00 8.9 10 Sudoeste 12 Sudoeste 0.2 -- -- 84
2020-02-03 09:00:00 6.1 8 Sudoeste 16 Sudoeste 0 -- -- 93
2020-02-03 08:00:00 6.3 11 Sudoeste 15 Sudoeste 0 -- -- 93
2020-02-03 07:00:00 6.5 12 Sudoeste 14 Sudoeste 0 -- -- 96
2020-02-03 06:00:00 6.9 9 Sudoeste 10 Sudoeste 0 -- -- 96
2020-02-03 05:00:00 7.3 8 Sudoeste 9 Sudoeste 0 -- -- 96
2020-02-03 04:00:00 7.7 0 Calma 12 Sudoeste 0 -- -- 96
2020-02-03 03:00:00 7.6 12 Sudoeste 16 Sudoeste 0 -- -- 97
2020-02-03 02:00:00 7.9 10 Sudoeste 11 Sudoeste 0 -- -- 95
2020-02-03 01:00:00 8.9 6 Sudoeste 12 Sudoeste 0 -- -- 94
2020-02-03 00:00:00 9.5 8 Sudoeste 11 Sudoeste 0 -- -- 93
2020-02-02 23:00:00 10.2 7 Sudoeste 10 Sudoeste 0 -- -- 91
2020-02-02 22:00:00 11.1 8 Sudoeste 12 Sudoeste 0 -- -- 87
2020-02-02 21:00:00 12.7 8 Sudoeste 10 Sudoeste 0 -- -- 82
2020-02-02 20:00:00 15.2 5 Sudoeste 19 Nordeste 0 -- -- 75
2020-02-02 19:00:00 16.7 14 Nordeste 19 Este 0 -- -- 69
2020-02-02 18:00:00 18.8 13 Nordeste 19 Nordeste 0 -- -- 62
2020-02-02 17:00:00 20.7 12 Nordeste 16 Nordeste 0 -- -- 51
2020-02-02 16:00:00 21.5 7 Nordeste 13 Nordeste 0 -- -- 47
2020-02-02 15:00:00 21.4 3 Norte 8 Norte 0 -- -- 45
2020-02-02 14:00:00 19.6 5 Norte 13 Nordeste 0 -- -- 52
2020-02-02 13:00:00 18 8 Nordeste 19 Nordeste 0 -- -- 59
2020-02-02 12:00:00 15.8 13 Nordeste 18 Nordeste 0 -- -- 71
2020-02-02 11:00:00 11.9 7 Sudoeste 14 Sudoeste 0 -- -- 88
2020-02-02 10:00:00 7.2 13 Sudoeste 15 Sudoeste 0 -- -- 99
2020-02-02 09:00:00 4.8 7 Sudoeste 11 Sudoeste 0 -- -- 98
2020-02-02 08:00:00 5.5 7 Sudoeste 11 Sudoeste 0 -- -- 98
2020-02-02 07:00:00 5.4 9 Sudoeste 12 Sudoeste 0 -- -- 97
2020-02-02 06:00:00 6.6 3 Sudoeste 5 Oeste 0 -- -- 98
2020-02-02 05:00:00 6.1 4 Sudoeste 13 Sudoeste 0 -- -- 98
2020-02-02 04:00:00 5.9 9 Sudoeste 12 Sudoeste 0 -- -- 97
2020-02-02 03:00:00 7.4 2 Sur 7 Sudoeste 0 -- -- 97
2020-02-02 02:00:00 7.3 9 Sudoeste 12 Sudoeste 0 -- -- 97
2020-02-02 01:00:00 7.6 9 Sudoeste 10 Sudoeste 0 -- -- 97
2020-02-02 00:00:00 8.1 4 Sur 12 Oeste 0 -- -- 95
2020-02-01 23:00:00 9.4 2 Sur 10 Sudoeste 0 -- -- 94
2020-02-01 22:00:00 9.9 8 Sudoeste 10 Sudoeste 0 -- -- 93
2020-02-01 21:00:00 11.6 8 Nordeste 10 Nordeste 0 -- -- 87
2020-02-01 20:00:00 12.6 4 Este 13 Este 0 -- -- 84
2020-02-01 19:00:00 13.5 6 Este 9 Nordeste 0 -- -- 82
2020-02-01 18:00:00 15.4 3 Norte 13 Nordeste 0 -- -- 77
2020-02-01 17:00:00 15.3 11 Nordeste 17 Nordeste 0 -- -- 77
2020-02-01 16:00:00 14.8 6 Nordeste 22 Norte 0 -- -- 79
2020-02-01 15:00:00 14.8 11 Norte 24 Norte 0 -- -- 81
2020-02-01 14:00:00 15.2 13 Norte 22 Norte 0 -- -- 76
2020-02-01 13:00:00 14.5 3 Norte 8 Sudeste 0 -- -- 85
2020-02-01 12:00:00 13.1 0 Calma 5 Norte 0 -- -- 94
2020-02-01 11:00:00 11.5 3 Sudoeste 5 Sudoeste 0 -- -- 99
2020-02-01 10:00:00 10.3 0 Calma 4 Sudoeste 0.2 -- -- 99
2020-02-01 09:00:00 9.5 3 Sudoeste 6 Sudoeste 0 -- -- 99
2020-02-01 08:00:00 9.2 7 Sudoeste 10 Sudoeste 0 -- -- 99
2020-02-01 07:00:00 9.2 4 Sudoeste 7 Sudoeste 0 -- -- 98
2020-02-01 06:00:00 9.2 4 Sudoeste 10 Sudoeste 0 -- -- 98
2020-02-01 05:00:00 9 6 Sudoeste 9 Sudoeste 0 -- -- 98
2020-02-01 04:00:00 9.2 3 Sudoeste 12 Sudoeste 0 -- -- 98
2020-02-01 03:00:00 9.1 4 Sudoeste 12 Oeste 0 -- -- 96
2020-02-01 02:00:00 10.5 7 Sudoeste 10 Sur 0 -- -- 95
2020-02-01 01:00:00 10.9 4 Sudoeste 12 Sudoeste 0 -- -- 97
2020-02-01 00:00:00 10.2 5 Sudoeste 17 Sudoeste 0 -- -- 97
2020-01-31 23:00:00 9.4 10 Sudoeste 13 Sudoeste 0 -- -- 96
2020-01-31 22:00:00 10.4 8 Sudoeste 10 Sudoeste 0 -- -- 94
2020-01-31 21:00:00 11.6 4 Sudoeste 5 Sudoeste 0 -- -- 90
2020-01-31 20:00:00 12.4 3 Noroeste 11 Este 0 -- -- 88
2020-01-31 19:00:00 13.1 9 Nordeste 17 Este 0 -- -- 86
2020-01-31 18:00:00 14.4 13 Nordeste 19 Nordeste 0 -- -- 82
2020-01-31 17:00:00 15.4 10 Nordeste 15 Nordeste 0 -- -- 78
2020-01-31 16:00:00 16 8 Norte 19 Nordeste 0 -- -- 73
2020-01-31 15:00:00 16.2 5 Nordeste 16 Nordeste 0 -- -- 71
2020-01-31 14:00:00 15.3 10 Nordeste 15 Nordeste 0 -- -- 71
2020-01-31 13:00:00 15 9 Nordeste 15 Nordeste 0 -- -- 71
2020-01-31 12:00:00 14.4 3 Norte 9 Oeste 0 -- -- 66
2020-01-31 11:00:00 12.3 3 Sur 8 Sudoeste 0 -- -- 81
2020-01-31 10:00:00 8.6 6 Sudoeste 9 Sudoeste 0 -- -- 95
2020-01-31 09:00:00 7.7 3 Sur 6 Sudoeste 0 -- -- 96
2020-01-31 08:00:00 7.9 0 Calma 5 Sudoeste 0 -- -- 95
2020-01-31 07:00:00 8.1 4 Sudoeste 5 Sudoeste 0 -- -- 93
2020-01-31 06:00:00 8.4 0 Calma 5 Sudoeste 0 -- -- 93
2020-01-31 05:00:00 8.5 5 Sudoeste 9 Sudoeste 0 -- -- 93
2020-01-31 04:00:00 8.1 8 Sudoeste 10 Sudoeste 0 -- -- 92
2020-01-31 03:00:00 8.1 6 Sudoeste 13 Sudoeste 0 -- -- 91
2020-01-31 02:00:00 7.5 4 Sudoeste 7 Sudoeste 0 -- -- 92
2020-01-31 01:00:00 7.5 4 Oeste 10 Sudoeste 0 -- -- 92
2020-01-31 00:00:00 7.7 4 Sudoeste 12 Sudoeste 0 -- -- 91
2020-01-30 23:00:00 7.9 7 Sudoeste 8 Sudoeste 0 -- -- 91
2020-01-30 22:00:00 8.7 0 Calma 5 Norte 0 -- -- 89
2020-01-30 21:00:00 9.4 3 Sudeste 12 Nordeste 0 -- -- 91
2020-01-30 20:00:00 10.9 8 Nordeste 12 Nordeste 0 -- -- 90
2020-01-30 19:00:00 12.1 6 Norte 8 Nordeste 0 -- -- 85
2020-01-30 18:00:00 13.9 6 Norte 12 Norte 0 -- -- 77
2020-01-30 17:00:00 15.3 7 Norte 16 Nordeste 0 -- -- 69
2020-01-30 16:00:00 15.4 6 Nordeste 18 Nordeste 0 -- -- 66
2020-01-30 15:00:00 16.9 11 Nordeste 21 Nordeste 0 -- -- 60
2020-01-30 14:00:00 16.2 4 Sudoeste 10 Este 0 -- -- 54
2020-01-30 13:00:00 13.8 2 Noroeste 8 Norte 0 -- -- 69
2020-01-30 12:00:00 12.2 5 Norte 8 Norte 0 -- -- 80
2020-01-30 11:00:00 10.7 0 Calma 8 Oeste 0 -- -- 89
2020-01-30 10:00:00 6 7 Sudoeste 12 Sudoeste 0 -- -- 98
2020-01-30 09:00:00 3.8 6 Sudoeste 10 Sudoeste 0 -- -- 98
2020-01-30 08:00:00 3.6 6 Sudoeste 10 Sudoeste 0 -- -- 97
2020-01-30 07:00:00 4.8 6 Sudoeste 9 Sudoeste 0.2 -- -- 97
2020-01-30 06:00:00 4.8 6 Sudoeste 9 Sudoeste 0 -- -- 97
2020-01-30 05:00:00 5.5 4 Sudoeste 7 Oeste 0 -- -- 96
2020-01-30 04:00:00 5.5 6 Sudoeste 9 Sudoeste 0 -- -- 96
2020-01-30 03:00:00 6 4 Sudoeste 10 Sudoeste 0 -- -- 95
2020-01-30 02:00:00 6.3 3 Sur 9 Sudoeste 0 -- -- 95
2020-01-30 01:00:00 6.8 5 Sudoeste 15 Sudoeste 0 -- -- 95
2020-01-30 00:00:00 7.1 12 Sudoeste 14 Sudoeste 0 -- -- 95
2020-01-29 23:00:00 7.6 11 Sudoeste 12 Sudoeste 0 -- -- 95
2020-01-29 22:00:00 9 7 Oeste 12 Sudoeste 0 -- -- 94
2020-01-29 21:00:00 10.6 6 Sudoeste 7 Sudoeste 0 -- -- 90
2020-01-29 20:00:00 11.6 4 Sudoeste 10 Nordeste 0 -- -- 88
2020-01-29 19:00:00 12.7 6 Nordeste 15 Nordeste 0 -- -- 83
2020-01-29 18:00:00 13.6 13 Nordeste 18 Nordeste 0 -- -- 80
2020-01-29 17:00:00 14.7 10 Nordeste 14 Nordeste 0 -- -- 76
2020-01-29 16:00:00 15.2 9 Nordeste 19 Nordeste 0 -- -- 72
2020-01-29 15:00:00 14.8 10 Nordeste 13 Nordeste 0 -- -- 73
2020-01-29 14:00:00 14.9 10 Norte 13 Norte 0 -- -- 71
2020-01-29 13:00:00 13.6 4 Norte 9 Nordeste 0 -- -- 74
2020-01-29 12:00:00 12.2 4 Nordeste 6 Nordeste 0 -- -- 82
2020-01-29 11:00:00 10.1 0 Calma 4 Este 0 -- -- 99
2020-01-29 10:00:00 6.6 2 Sudoeste 3 Sudoeste 0 -- -- 99
2020-01-29 09:00:00 4.7 3 Sudoeste 9 Sudoeste 0 -- -- 99
2020-01-29 08:00:00 4.1 7 Sudoeste 11 Sudoeste 0 -- -- 99
2020-01-29 07:00:00 4.4 8 Sudoeste 9 Sudoeste 0 -- -- 99
2020-01-29 06:00:00 4.6 5 Sudoeste 5 Sudoeste 0 -- -- 98
2020-01-29 05:00:00 5.2 2 Sudoeste 7 Sudoeste 0 -- -- 98
2020-01-29 04:00:00 5.2 4 Sudoeste 13 Sudoeste 0 -- -- 98
2020-01-29 03:00:00 5.5 7 Sudoeste 12 Sudoeste 0 -- -- 98
2020-01-29 02:00:00 5.8 5 Sudoeste 10 Sudoeste 0 -- -- 97
2020-01-29 01:00:00 7.3 0 Calma 5 Nordeste 0 -- -- 96
2020-01-29 00:00:00 7.8 5 Sudoeste 10 Sudoeste 0 -- -- 96
2020-01-28 23:00:00 8.5 10 Sur 11 Sur 0 -- -- 95
2020-01-28 22:00:00 9.7 5 Oeste 9 Oeste 0 -- -- 91
2020-01-28 21:00:00 10.5 4 Sudoeste 10 Nordeste 0 -- -- 89
2020-01-28 20:00:00 11.1 8 Nordeste 18 Nordeste 0 -- -- 87
2020-01-28 19:00:00 11.7 9 Nordeste 18 Norte 0 -- -- 83
2020-01-28 18:00:00 12.4 13 Norte 18 Norte 0 -- -- 80
2020-01-28 17:00:00 13.1 12 Norte 18 Norte 0 -- -- 78
2020-01-28 16:00:00 13.5 11 Nordeste 19 Nordeste 0 -- -- 76
2020-01-28 15:00:00 13.6 11 Nordeste 21 Nordeste 0 -- -- 76
2020-01-28 14:00:00 14.1 13 Norte 20 Norte 0 -- -- 72
2020-01-28 13:00:00 15.2 4 Este 10 Sudeste 0 -- -- 66
2020-01-28 12:00:00 13.6 5 Norte 18 Este 0 -- -- 71
2020-01-28 11:00:00 12.1 2 Sur 7 Sudoeste 0 -- -- 83
2020-01-28 10:00:00 9.3 2 Sudoeste 11 Sudoeste 0 -- -- 90
2020-01-28 09:00:00 8 6 Sudoeste 16 Sudoeste 0 -- -- 93
2020-01-28 08:00:00 7.6 7 Sudoeste 9 Oeste 0 -- -- 93
2020-01-28 07:00:00 7.8 3 Sudoeste 7 Sudoeste 0 -- -- 91
2020-01-28 06:00:00 7.9 6 Sudoeste 10 Oeste 0 -- -- 89
2020-01-28 05:00:00 7.4 5 Oeste 12 Oeste 0 -- -- 91
2020-01-28 04:00:00 7 4 Sur 10 Oeste 0 -- -- 91
2020-01-28 03:00:00 6.7 7 Sudoeste 9 Oeste 0 -- -- 91
2020-01-28 02:00:00 5.9 5 Sudoeste 9 Sudoeste 0 -- -- 93
2020-01-28 01:00:00 5.6 4 Sur 9 Sur 0 -- -- 92
2020-01-28 00:00:00 5.6 4 Sudoeste 9 Sudoeste 0 -- -- 91
2020-01-27 23:00:00 6 5 Sudoeste 8 Sudoeste 0 -- -- 91
2020-01-27 22:00:00 7.1 6 Sudoeste 10 Oeste 0 -- -- 87
2020-01-27 21:00:00 8.2 4 Sudoeste 9 Sudeste 0 -- -- 82
2020-01-27 20:00:00 9.2 0 Calma 8 Sudoeste 0 -- -- 77
2020-01-27 19:00:00 10.5 2 Sudeste 9 Sudeste 0 -- -- 71
2020-01-27 18:00:00 11.7 6 Sudeste 14 Este 0 -- -- 71
2020-01-27 17:00:00 12.2 11 Nordeste 18 Nordeste 0 -- -- 68
2020-01-27 16:00:00 12.3 12 Nordeste 19 Nordeste 0 -- -- 70
2020-01-27 15:00:00 12.6 10 Nordeste 18 Nordeste 0 -- -- 66
2020-01-27 14:00:00 12.4 10 Nordeste 17 Nordeste 0 -- -- 65
2020-01-27 13:00:00 11.7 4 Norte 7 Norte 0 -- -- 63
2020-01-27 12:00:00 10.3 0 Calma 6 Sudoeste 0 -- -- 73
2020-01-27 11:00:00 5.8 5 Sudoeste 10 Sudoeste 0 -- -- 90
2020-01-27 10:00:00 2.4 5 Sudoeste 8 Sudoeste 0 -- -- 98
2020-01-27 09:00:00 0.8 3 Sudoeste 9 Sudoeste 0.2 -- -- 98
2020-01-27 08:00:00 0.7 5 Sudoeste 9 Sudoeste 0 -- -- 97
2020-01-27 07:00:00 0.8 5 Sudoeste 8 Sudoeste 0 -- -- 97
2020-01-27 06:00:00 0.7 5 Sudoeste 10 Sudoeste 0 -- -- 97
2020-01-27 05:00:00 1.1 10 Sudoeste 11 Sudoeste 0 -- -- 96
2020-01-27 04:00:00 1.6 7 Sudoeste 9 Sudoeste 0 -- -- 96
2020-01-27 03:00:00 2.1 8 Sudoeste 13 Sudoeste 0 -- -- 96
2020-01-27 02:00:00 2.3 11 Sudoeste 14 Sudoeste 0 -- -- 96
2020-01-27 01:00:00 2.9 10 Sudoeste 12 Sudoeste 0 -- -- 96
2020-01-27 00:00:00 3.3 8 Sudoeste 10 Sudoeste 0 -- -- 95
2020-01-26 23:00:00 4 8 Sudoeste 10 Sudoeste 0 -- -- 94
2020-01-26 22:00:00 5.6 0 Calma 8 Sur 0 -- -- 90
2020-01-26 21:00:00 6.4 7 Sudoeste 9 Sudoeste 0 -- -- 88
2020-01-26 20:00:00 7.8 4 Sur 6 Sur 0 -- -- 82
2020-01-26 19:00:00 8.9 4 Norte 16 Nordeste 0 -- -- 78
2020-01-26 18:00:00 10.5 6 Nordeste 15 Norte 0 -- -- 70
2020-01-26 17:00:00 11.8 7 Norte 25 Nordeste 0 -- -- 72
2020-01-26 16:00:00 12.8 5 Oeste 22 Norte 0 -- -- 64
2020-01-26 15:00:00 11.5 7 Norte 19 Norte 0 -- -- 69
2020-01-26 14:00:00 11.7 4 Oeste 18 Nordeste 0 -- -- 71
2020-01-26 13:00:00 11.9 7 Sudeste 13 Nordeste 0 -- -- 74
2020-01-26 12:00:00 11.9 4 Este 11 Sudeste 0 -- -- 74
2020-01-26 11:00:00 10 2 Sudoeste 7 Sudoeste 0 -- -- 90
2020-01-26 10:00:00 7.5 0 Calma 4 Noroeste 0 -- -- 98
2020-01-26 09:00:00 6.5 0 Calma 5 Nordeste 0 -- -- 97
2020-01-26 08:00:00 6.6 5 Norte 6 Norte 0 -- -- 96
2020-01-26 07:00:00 7.4 4 Oeste 8 Este 0 -- -- 96
2020-01-26 06:00:00 7.5 4 Nordeste 6 Sudoeste 0 -- -- 96
2020-01-26 05:00:00 7.9 3 Sur 7 Sudoeste 0.2 -- -- 95
2020-01-26 04:00:00 7.7 0 Calma 6 Sur 0 -- -- 96
2020-01-26 03:00:00 7.7 5 Sudoeste 8 Sur 0 -- -- 96
2020-01-26 02:00:00 7.7 6 Sudoeste 9 Sur 0 -- -- 96
2020-01-26 01:00:00 7.9 6 Sur 12 Sudoeste 0.6 -- -- 95
2020-01-26 00:00:00 8.4 4 Sur 13 Sudoeste 0 -- -- 90
2020-01-25 23:00:00 8.6 4 Sur 9 Sur 0 -- -- 88
2020-01-25 22:00:00 8.7 5 Sudoeste 8 Sudoeste 0 -- -- 89
2020-01-25 21:00:00 8.8 5 Sur 19 Sudoeste 0 -- -- 87
2020-01-25 20:00:00 8.6 9 Sudoeste 13 Sur 0 -- -- 88
2020-01-25 19:00:00 9.2 8 Sur 14 Sur 0 -- -- 85
2020-01-25 18:00:00 9.9 10 Sudoeste 18 Sudoeste 0 -- -- 87
2020-01-25 17:00:00 9.7 12 Sudoeste 21 Sudoeste 0.2 -- -- 90
2020-01-25 16:00:00 9.2 8 Sudoeste 15 Sur 1.2 -- -- 92
2020-01-25 15:00:00 9.4 9 Sudoeste 28 Sur 1.2 -- -- 89
2020-01-25 14:00:00 10.2 20 Sur 35 Sur 0 -- -- 80
2020-01-25 13:00:00 10.3 23 Sur 37 Sur 0 -- -- 77
2020-01-25 12:00:00 9.5 24 Sudeste 34 Sudeste 0 -- -- 79
2020-01-25 11:00:00 8.7 25 Sudeste 35 Sudeste 0.2 -- -- 82
2020-01-25 10:00:00 8.2 16 Sur 30 Sudeste 0.6 -- -- 89
2020-01-25 09:00:00 8.2 8 Sur 25 Sur 0.4 -- -- 89
2020-01-25 08:00:00 8.3 9 Sur 21 Sur 0.4 -- -- 86
2020-01-25 07:00:00 8.1 5 Sudoeste 24 Sudeste 1.4 -- -- 90
2020-01-25 06:00:00 7.8 9 Sudoeste 14 Sudoeste 1 -- -- 92
2020-01-25 05:00:00 8.1 4 Sudoeste 13 Sudoeste 0.6 -- -- 89
2020-01-25 04:00:00 8.7 9 Sur 16 Sur 0 -- -- 84
2020-01-25 03:00:00 8.6 9 Sur 21 Sudeste 0.4 -- -- 87
2020-01-25 02:00:00 9 7 Sudeste 17 Sudeste 0 -- -- 84
2020-01-25 01:00:00 8.6 7 Sur 15 Sur 0.2 -- -- 89
2020-01-25 00:00:00 8.5 8 Sur 13 Sudoeste 0.2 -- -- 90
2020-01-24 23:00:00 8.7 5 Sur 14 Sur 0 -- -- 88
2020-01-24 22:00:00 8.6 9 Sur 15 Sudoeste 0.4 -- -- 88
2020-01-24 21:00:00 9.3 6 Sur 13 Oeste 0.6 -- -- 85
2020-01-24 20:00:00 10.3 6 Sudoeste 12 Sur 0 -- -- 78
2020-01-24 19:00:00 11 6 Sur 12 Sur 0 -- -- 72
2020-01-24 18:00:00 11.9 6 Sudeste 16 Sur 0 -- -- 66
2020-01-24 17:00:00 12.3 12 Sur 21 Sur 0 -- -- 67
2020-01-24 16:00:00 12.7 14 Sur 21 Sur 0 -- -- 63
2020-01-24 15:00:00 12.5 7 Sur 25 Sur 0 -- -- 67
2020-01-24 14:00:00 12.4 11 Sudoeste 21 Sur 0 -- -- 67
2020-01-24 13:00:00 12.8 11 Sur 17 Sudoeste 0 -- -- 67
2020-01-24 12:00:00 11.9 12 Sur 18 Sudeste 0 -- -- 70
2020-01-24 11:00:00 9.3 4 Sur 10 Oeste 0 -- -- 83
2020-01-24 10:00:00 7.1 7 Sudoeste 12 Sudoeste 0 -- -- 94
2020-01-24 09:00:00 7.4 6 Sudoeste 15 Sur 0 -- -- 86
2020-01-24 08:00:00 6.9 10 Sudoeste 16 Sur 0 -- -- 91
2020-01-24 07:00:00 7.3 10 Sudoeste 16 Sudoeste 0 -- -- 86
2020-01-24 06:00:00 7.4 14 Sudoeste 19 Sur 0 -- -- 85
2020-01-24 05:00:00 7.4 8 Sudoeste 29 Sudeste 0.4 -- -- 86
2020-01-24 04:00:00 6.9 11 Sur 22 Sur 2.2 -- -- 93
2020-01-24 03:00:00 7.4 10 Sudoeste 17 Sudoeste 0.4 -- -- 94
2020-01-24 02:00:00 7.5 5 Sur 13 Sur 0.4 -- -- 94
2020-01-24 01:00:00 7.5 10 Sur 24 Sudoeste 0.6 -- -- 93
2020-01-24 00:00:00 7.5 12 Sudoeste 17 Sur 0.2 -- -- 93
2020-01-23 23:00:00 7.4 7 Sudoeste 10 Oeste 0 -- -- 92
2020-01-23 22:00:00 7.2 7 Sudoeste 12 Sudoeste 0.2 -- -- 95
2020-01-23 21:00:00 7.1 6 Sudoeste 13 Sudoeste 0 -- -- 96
2020-01-23 20:00:00 7.5 5 Sudoeste 11 Sudoeste 0 -- -- 95
2020-01-23 19:00:00 7.9 5 Sur 8 Sur 0 -- -- 93
2020-01-23 18:00:00 8.2 3 Oeste 8 Sudoeste 0 -- -- 91
2020-01-23 17:00:00 8.3 11 Sur 21 Sudoeste 0.2 -- -- 90
2020-01-23 16:00:00 8.1 16 Sudoeste 23 Sur 0.6 -- -- 91
2020-01-23 15:00:00 8.7 6 Sur 10 Sudoeste 0.4 -- -- 90
2020-01-23 14:00:00 8.5 7 Sudoeste 10 Sudoeste 0 -- -- 89
2020-01-23 13:00:00 8.1 8 Sur 19 Sudoeste 0.2 -- -- 89
2020-01-23 12:00:00 8.4 11 Sudoeste 19 Sur 0 -- -- 87
2020-01-23 11:00:00 7.8 9 Sudoeste 16 Sudoeste 0 -- -- 83
2020-01-23 10:00:00 6.9 9 Sudoeste 13 Sudoeste 0 -- -- 91
2020-01-23 09:00:00 6.1 7 Sudoeste 15 Sudoeste 0.2 -- -- 93
2020-01-23 08:00:00 6.4 5 Sudoeste 13 Oeste 0 -- -- 90
2020-01-23 07:00:00 7.1 10 Oeste 20 Sudeste 1.8 -- -- 85
2020-01-23 06:00:00 7.8 12 Sur 17 Sur 0.2 -- -- 78
2020-01-23 05:00:00 7.5 7 Sur 12 Sudoeste 0 -- -- 76
2020-01-23 04:00:00 7.6 4 Sudoeste 17 Sur 0 -- -- 77
2020-01-23 03:00:00 7 10 Sudoeste 13 Sudoeste 0 -- -- 80
2020-01-23 02:00:00 6.8 8 Sudoeste 12 Sudoeste 0 -- -- 80
2020-01-23 01:00:00 6.5 9 Sudoeste 12 Sur 0 -- -- 80
2020-01-23 00:00:00 7.3 5 Oeste 15 Sudoeste 0 -- -- 76
2020-01-22 23:00:00 7.4 10 Sur 28 Sur 0 -- -- 76
2020-01-22 22:00:00 7.9 10 Sudeste 23 Sur 0 -- -- 74
2020-01-22 21:00:00 7.6 11 Sur 24 Sur 0 -- -- 76
2020-01-22 20:00:00 7.8 12 Sudoeste 21 Sur 0 -- -- 76
2020-01-22 19:00:00 8.7 9 Sur 27 Sur 0 -- -- 70
2020-01-22 18:00:00 9.6 12 Sur 23 Sur 0 -- -- 67
2020-01-22 17:00:00 10.1 15 Sur 24 Sur 0 -- -- 66
2020-01-22 16:00:00 10.6 6 Sudoeste 10 Oeste 0 -- -- 65
2020-01-22 15:00:00 10.5 2 Oeste 11 Sudoeste 0 -- -- 65
2020-01-22 14:00:00 9.6 6 Sudoeste 9 Sudoeste 0 -- -- 68
2020-01-22 13:00:00 8.9 0 Calma 6 Sudoeste 0 -- -- 76
2020-01-22 12:00:00 7.5 0 Calma 4 Sudoeste 0 -- -- 87
2020-01-22 11:00:00 6.1 0 Calma 4 Nordeste 0 -- -- 91
2020-01-22 10:00:00 5.6 5 Nordeste 6 Nordeste 0 -- -- 92
2020-01-22 09:00:00 5.1 0 Calma 8 Sudoeste 0.2 -- -- 91
2020-01-22 08:00:00 5.6 2 Sudeste 3 Este 0 -- -- 87
2020-01-22 07:00:00 5.9 0 Calma 4 Norte 0 -- -- 85
2020-01-22 06:00:00 5.5 4 Norte 8 Norte 0 -- -- 89
2020-01-22 05:00:00 6 3 Oeste 10 Sur 0 -- -- 87
2020-01-22 04:00:00 5.6 8 Sudoeste 10 Sudoeste 0 -- -- 91
2020-01-22 03:00:00 5.9 0 Calma 5 Sudeste 0 -- -- 89
2020-01-22 02:00:00 5.7 3 Norte 5 Sudeste 0 -- -- 90
2020-01-22 01:00:00 5.8 0 Calma 6 Sudoeste 0 -- -- 92
2020-01-22 00:00:00 6 5 Norte 6 Este 0.2 -- -- 90